sensor_id;sensor_type;location;lat;lon;timestamp;temperature;humidity
2539;DHT22;1280;49.760;9.664;2023-04-01T00:02:22;12.50;75.60
2539;DHT22;1280;49.760;9.664;2023-04-01T00:04:50;12.50;75.60
2539;DHT22;1280;49.760;9.664;2023-04-01T00:07:20;12.50;75.60
2539;DHT22;1280;49.760;9.664;2023-04-01T00:09:50;12.50;75.60
2539;DHT22;1280;49.760;9.664;2023-04-01T00:12:18;12.50;75.60
2539;DHT22;1280;49.760;9.664;2023-04-01T00:14:45;12.40;75.60
2539;DHT22;1280;49.760;9.664;2023-04-01T00:17:13;12.40;75.60
2539;DHT22;1280;49.760;9.664;2023-04-01T00:19:41;12.50;75.60
2539;DHT22;1280;49.760;9.664;2023-04-01T00:22:09;12.50;75.60
2539;DHT22;1280;49.760;9.664;2023-04-01T00:24:39;12.50;75.50
2539;DHT22;1280;49.760;9.664;2023-04-01T00:27:07;12.50;75.60
2539;DHT22;1280;49.760;9.664;2023-04-01T00:29:35;12.50;75.40
2539;DHT22;1280;49.760;9.664;2023-04-01T00:32:03;12.50;75.40
2539;DHT22;1280;49.760;9.664;2023-04-01T00:34:31;12.50;75.40
2539;DHT22;1280;49.760;9.664;2023-04-01T00:36:59;12.50;75.40
2539;DHT22;1280;49.760;9.664;2023-04-01T00:39:28;12.40;75.40
2539;DHT22;1280;49.760;9.664;2023-04-01T00:41:58;12.40;75.40
2539;DHT22;1280;49.760;9.664;2023-04-01T00:44:28;12.40;75.40
2539;DHT22;1280;49.760;9.664;2023-04-01T00:46:56;12.40;75.30
2539;DHT22;1280;49.760;9.664;2023-04-01T00:49:26;12.40;75.20
2539;DHT22;1280;49.760;9.664;2023-04-01T00:51:59;12.40;75.10
2539;DHT22;1280;49.760;9.664;2023-04-01T00:54:29;12.40;75.30
2539;DHT22;1280;49.760;9.664;2023-04-01T00:57:02;12.40;75.40
2539;DHT22;1280;49.760;9.664;2023-04-01T00:59:35;12.40;75.30
2539;DHT22;1280;49.760;9.664;2023-04-01T01:02:08;12.40;75.20
2539;DHT22;1280;49.760;9.664;2023-04-01T01:04:38;12.40;75.20
2539;DHT22;1280;49.760;9.664;2023-04-01T01:07:15;12.50;75.20
2539;DHT22;1280;49.760;9.664;2023-04-01T01:09:49;12.40;75.10
2539;DHT22;1280;49.760;9.664;2023-04-01T01:12:25;12.40;75.20
2539;DHT22;1280;49.760;9.664;2023-04-01T01:15:01;12.40;75.20
2539;DHT22;1280;49.760;9.664;2023-04-01T01:17:39;12.40;75.30
2539;DHT22;1280;49.760;9.664;2023-04-01T01:20:50;12.40;75.30
2539;DHT22;1280;49.760;9.664;2023-04-01T01:23:53;12.40;75.20
2539;DHT22;1280;49.760;9.664;2023-04-01T01:26:52;12.40;75.00
2539;DHT22;1280;49.760;9.664;2023-04-01T01:29:54;12.40;75.10
2539;DHT22;1280;49.760;9.664;2023-04-01T01:32:38;12.40;75.10
2539;DHT22;1280;49.760;9.664;2023-04-01T01:35:19;12.30;75.00
2539;DHT22;1280;49.760;9.664;2023-04-01T01:37:51;12.30;75.10
2539;DHT22;1280;49.760;9.664;2023-04-01T01:40:20;12.30;75.00
2539;DHT22;1280;49.760;9.664;2023-04-01T01:42:53;12.30;75.10
2539;DHT22;1280;49.760;9.664;2023-04-01T01:45:23;12.30;75.10
2539;DHT22;1280;49.760;9.664;2023-04-01T01:47:53;12.30;75.00
2539;DHT22;1280;49.760;9.664;2023-04-01T01:50:24;12.30;75.00
2539;DHT22;1280;49.760;9.664;2023-04-01T01:53:03;12.30;74.90
2539;DHT22;1280;49.760;9.664;2023-04-01T01:55:33;12.30;75.00
2539;DHT22;1280;49.760;9.664;2023-04-01T01:58:07;12.30;75.00
2539;DHT22;1280;49.760;9.664;2023-04-01T02:00:40;12.30;75.00
2539;DHT22;1280;49.760;9.664;2023-04-01T02:03:11;12.30;75.00
2539;DHT22;1280;49.760;9.664;2023-04-01T02:05:42;12.30;75.00
2539;DHT22;1280;49.760;9.664;2023-04-01T02:08:14;12.30;74.90
2539;DHT22;1280;49.760;9.664;2023-04-01T02:10:47;12.40;74.90
2539;DHT22;1280;49.760;9.664;2023-04-01T02:13:25;12.30;74.80
2539;DHT22;1280;49.760;9.664;2023-04-01T02:15:55;12.30;74.90
2539;DHT22;1280;49.760;9.664;2023-04-01T02:18:24;12.30;74.80
2539;DHT22;1280;49.760;9.664;2023-04-01T02:20:54;12.30;74.80
2539;DHT22;1280;49.760;9.664;2023-04-01T02:23:25;12.30;74.80
2539;DHT22;1280;49.760;9.664;2023-04-01T02:25:54;12.30;74.70
2539;DHT22;1280;49.760;9.664;2023-04-01T02:28:23;12.30;74.70
2539;DHT22;1280;49.760;9.664;2023-04-01T02:30:52;12.30;74.70
2539;DHT22;1280;49.760;9.664;2023-04-01T02:33:20;12.30;74.60
2539;DHT22;1280;49.760;9.664;2023-04-01T02:35:49;12.30;74.60
2539;DHT22;1280;49.760;9.664;2023-04-01T02:38:19;12.30;74.50
2539;DHT22;1280;49.760;9.664;2023-04-01T02:40:49;12.30;74.60
2539;DHT22;1280;49.760;9.664;2023-04-01T02:43:17;12.30;74.60
2539;DHT22;1280;49.760;9.664;2023-04-01T02:45:46;12.20;74.60
2539;DHT22;1280;49.760;9.664;2023-04-01T02:48:14;12.30;74.70
2539;DHT22;1280;49.760;9.664;2023-04-01T02:50:42;12.30;74.60
2539;DHT22;1280;49.760;9.664;2023-04-01T02:53:10;12.30;74.50
2539;DHT22;1280;49.760;9.664;2023-04-01T02:55:39;12.30;74.50
2539;DHT22;1280;49.760;9.664;2023-04-01T02:58:07;12.30;74.60
2539;DHT22;1280;49.760;9.664;2023-04-01T03:00:36;12.30;74.60
2539;DHT22;1280;49.760;9.664;2023-04-01T03:03:04;12.30;74.40
2539;DHT22;1280;49.760;9.664;2023-04-01T03:05:33;12.30;74.40
2539;DHT22;1280;49.760;9.664;2023-04-01T03:08:01;12.30;74.40
2539;DHT22;1280;49.760;9.664;2023-04-01T03:10:30;12.30;74.30
2539;DHT22;1280;49.760;9.664;2023-04-01T03:12:59;12.30;74.30
2539;DHT22;1280;49.760;9.664;2023-04-01T03:15:27;12.20;74.40
2539;DHT22;1280;49.760;9.664;2023-04-01T03:17:55;12.30;74.30
2539;DHT22;1280;49.760;9.664;2023-04-01T03:20:23;12.30;74.30
2539;DHT22;1280;49.760;9.664;2023-04-01T03:22:52;12.30;74.30
2539;DHT22;1280;49.760;9.664;2023-04-01T03:25:20;12.30;74.20
2539;DHT22;1280;49.760;9.664;2023-04-01T03:27:48;12.20;74.20
2539;DHT22;1280;49.760;9.664;2023-04-01T03:30:17;12.20;74.30
2539;DHT22;1280;49.760;9.664;2023-04-01T03:32:49;12.20;74.10
2539;DHT22;1280;49.760;9.664;2023-04-01T03:35:17;12.20;74.20
2539;DHT22;1280;49.760;9.664;2023-04-01T03:37:47;12.20;74.10
2539;DHT22;1280;49.760;9.664;2023-04-01T03:40:15;12.20;74.20
2539;DHT22;1280;49.760;9.664;2023-04-01T03:42:43;12.20;74.20
2539;DHT22;1280;49.760;9.664;2023-04-01T03:45:11;12.20;74.10
2539;DHT22;1280;49.760;9.664;2023-04-01T03:47:41;12.20;74.20
2539;DHT22;1280;49.760;9.664;2023-04-01T03:50:09;12.10;74.30
2539;DHT22;1280;49.760;9.664;2023-04-01T03:52:39;12.10;74.30
2539;DHT22;1280;49.760;9.664;2023-04-01T03:55:07;12.10;74.10
2539;DHT22;1280;49.760;9.664;2023-04-01T03:57:37;12.10;74.20
2539;DHT22;1280;49.760;9.664;2023-04-01T04:00:14;12.10;74.30
2539;DHT22;1280;49.760;9.664;2023-04-01T04:02:46;12.20;74.20
2539;DHT22;1280;49.760;9.664;2023-04-01T04:05:19;12.20;74.10
2539;DHT22;1280;49.760;9.664;2023-04-01T04:07:47;12.10;74.20
2539;DHT22;1280;49.760;9.664;2023-04-01T04:10:21;12.10;74.20
2539;DHT22;1280;49.760;9.664;2023-04-01T04:12:51;12.10;74.30
2539;DHT22;1280;49.760;9.664;2023-04-01T04:15:22;12.10;74.20
2539;DHT22;1280;49.760;9.664;2023-04-01T04:17:52;12.10;74.30
2539;DHT22;1280;49.760;9.664;2023-04-01T04:20:20;12.10;74.30
2539;DHT22;1280;49.760;9.664;2023-04-01T04:22:48;12.10;74.30
2539;DHT22;1280;49.760;9.664;2023-04-01T04:25:16;12.10;74.30
2539;DHT22;1280;49.760;9.664;2023-04-01T04:27:44;12.10;74.30
2539;DHT22;1280;49.760;9.664;2023-04-01T04:30:14;12.20;74.20
2539;DHT22;1280;49.760;9.664;2023-04-01T04:32:44;12.20;74.20
2539;DHT22;1280;49.760;9.664;2023-04-01T04:35:13;12.20;74.20
2539;DHT22;1280;49.760;9.664;2023-04-01T04:37:42;12.20;74.20
2539;DHT22;1280;49.760;9.664;2023-04-01T04:40:10;12.20;74.20
2539;DHT22;1280;49.760;9.664;2023-04-01T04:42:39;12.20;74.20
2539;DHT22;1280;49.760;9.664;2023-04-01T04:45:11;12.20;74.20
2539;DHT22;1280;49.760;9.664;2023-04-01T04:47:46;12.10;74.30
2539;DHT22;1280;49.760;9.664;2023-04-01T04:50:15;12.10;74.30
2539;DHT22;1280;49.760;9.664;2023-04-01T04:52:43;12.10;74.30
2539;DHT22;1280;49.760;9.664;2023-04-01T04:55:11;12.00;74.40
2539;DHT22;1280;49.760;9.664;2023-04-01T04:57:42;12.00;74.50
2539;DHT22;1280;49.760;9.664;2023-04-01T05:00:10;12.00;74.50
2539;DHT22;1280;49.760;9.664;2023-04-01T05:02:59;12.00;74.50
2539;DHT22;1280;49.760;9.664;2023-04-01T05:05:29;12.00;74.50
2539;DHT22;1280;49.760;9.664;2023-04-01T05:07:58;12.00;74.60
2539;DHT22;1280;49.760;9.664;2023-04-01T05:10:26;11.90;74.80
2539;DHT22;1280;49.760;9.664;2023-04-01T05:12:54;11.90;74.90
2539;DHT22;1280;49.760;9.664;2023-04-01T05:15:23;11.90;74.70
2539;DHT22;1280;49.760;9.664;2023-04-01T05:17:50;11.90;74.70
2539;DHT22;1280;49.760;9.664;2023-04-01T05:20:18;11.90;74.70
2539;DHT22;1280;49.760;9.664;2023-04-01T05:22:48;12.00;74.70
2539;DHT22;1280;49.760;9.664;2023-04-01T05:25:16;12.00;74.80
2539;DHT22;1280;49.760;9.664;2023-04-01T05:27:44;12.00;74.70
2539;DHT22;1280;49.760;9.664;2023-04-01T05:30:12;12.00;74.70
2539;DHT22;1280;49.760;9.664;2023-04-01T05:32:53;12.00;74.70
2539;DHT22;1280;49.760;9.664;2023-04-01T05:35:21;12.00;74.60
2539;DHT22;1280;49.760;9.664;2023-04-01T05:37:50;11.90;74.80
2539;DHT22;1280;49.760;9.664;2023-04-01T05:40:20;12.00;74.80
2539;DHT22;1280;49.760;9.664;2023-04-01T05:42:49;12.00;74.70
2539;DHT22;1280;49.760;9.664;2023-04-01T05:45:17;12.00;74.60
2539;DHT22;1280;49.760;9.664;2023-04-01T05:48:05;11.90;74.70
2539;DHT22;1280;49.760;9.664;2023-04-01T05:50:40;11.90;74.90
2539;DHT22;1280;49.760;9.664;2023-04-01T05:53:11;11.90;74.80
2539;DHT22;1280;49.760;9.664;2023-04-01T05:55:41;12.00;74.80
2539;DHT22;1280;49.760;9.664;2023-04-01T05:58:14;11.90;74.80
2539;DHT22;1280;49.760;9.664;2023-04-01T06:00:45;12.00;74.70
2539;DHT22;1280;49.760;9.664;2023-04-01T06:03:15;11.90;74.90
2539;DHT22;1280;49.760;9.664;2023-04-01T06:05:44;11.90;74.90
2539;DHT22;1280;49.760;9.664;2023-04-01T06:08:16;11.90;75.00
2539;DHT22;1280;49.760;9.664;2023-04-01T06:11:04;11.90;75.10
2539;DHT22;1280;49.760;9.664;2023-04-01T06:13:54;11.90;75.10
2539;DHT22;1280;49.760;9.664;2023-04-01T06:16:36;11.90;75.10
2539;DHT22;1280;49.760;9.664;2023-04-01T06:19:32;12.00;75.10
2539;DHT22;1280;49.760;9.664;2023-04-01T06:22:26;12.00;75.10
2539;DHT22;1280;49.760;9.664;2023-04-01T06:25:46;12.00;75.10
2539;DHT22;1280;49.760;9.664;2023-04-01T06:28:38;12.00;75.10
2539;DHT22;1280;49.760;9.664;2023-04-01T06:31:18;12.10;75.10
2539;DHT22;1280;49.760;9.664;2023-04-01T06:34:00;12.10;75.10
2539;DHT22;1280;49.760;9.664;2023-04-01T06:36:46;12.10;75.20
2539;DHT22;1280;49.760;9.664;2023-04-01T06:39:47;12.10;75.20
2539;DHT22;1280;49.760;9.664;2023-04-01T06:42:40;12.20;75.10
2539;DHT22;1280;49.760;9.664;2023-04-01T06:45:38;12.20;75.30
2539;DHT22;1280;49.760;9.664;2023-04-01T06:48:42;12.20;75.40
2539;DHT22;1280;49.760;9.664;2023-04-01T06:51:44;12.20;75.40
2539;DHT22;1280;49.760;9.664;2023-04-01T06:54:34;12.30;75.40
2539;DHT22;1280;49.760;9.664;2023-04-01T06:57:42;12.30;75.30
2539;DHT22;1280;49.760;9.664;2023-04-01T07:00:22;12.30;75.30
2539;DHT22;1280;49.760;9.664;2023-04-01T07:02:55;12.20;75.30
2539;DHT22;1280;49.760;9.664;2023-04-01T07:05:27;12.20;75.30
2539;DHT22;1280;49.760;9.664;2023-04-01T07:08:02;12.20;75.30
2539;DHT22;1280;49.760;9.664;2023-04-01T07:10:38;12.20;75.40
2539;DHT22;1280;49.760;9.664;2023-04-01T07:13:32;12.20;75.50
2539;DHT22;1280;49.760;9.664;2023-04-01T07:16:13;12.20;75.60
2539;DHT22;1280;49.760;9.664;2023-04-01T07:18:47;12.30;75.60
2539;DHT22;1280;49.760;9.664;2023-04-01T07:21:26;12.30;75.60
2539;DHT22;1280;49.760;9.664;2023-04-01T07:24:05;12.40;75.60
2539;DHT22;1280;49.760;9.664;2023-04-01T07:26:42;12.40;75.50
2539;DHT22;1280;49.760;9.664;2023-04-01T07:29:19;12.40;75.60
2539;DHT22;1280;49.760;9.664;2023-04-01T07:32:18;12.40;75.60
2539;DHT22;1280;49.760;9.664;2023-04-01T07:34:55;12.50;75.50
2539;DHT22;1280;49.760;9.664;2023-04-01T07:37:31;12.40;75.60
2539;DHT22;1280;49.760;9.664;2023-04-01T07:40:11;12.40;75.70
2539;DHT22;1280;49.760;9.664;2023-04-01T07:42:52;12.40;75.80
2539;DHT22;1280;49.760;9.664;2023-04-01T07:45:31;12.40;75.70
2539;DHT22;1280;49.760;9.664;2023-04-01T07:48:13;12.50;75.70
2539;DHT22;1280;49.760;9.664;2023-04-01T07:50:48;12.50;75.60
2539;DHT22;1280;49.760;9.664;2023-04-01T07:53:25;12.50;75.60
2539;DHT22;1280;49.760;9.664;2023-04-01T07:56:02;12.40;75.60
2539;DHT22;1280;49.760;9.664;2023-04-01T07:58:41;12.40;75.70
2539;DHT22;1280;49.760;9.664;2023-04-01T08:01:23;12.40;75.70
2539;DHT22;1280;49.760;9.664;2023-04-01T08:04:17;12.40;75.70
2539;DHT22;1280;49.760;9.664;2023-04-01T08:06:54;12.30;75.90
2539;DHT22;1280;49.760;9.664;2023-04-01T08:09:32;12.20;76.20
2539;DHT22;1280;49.760;9.664;2023-04-01T08:12:30;12.20;76.20
2539;DHT22;1280;49.760;9.664;2023-04-01T08:15:25;12.20;76.20
2539;DHT22;1280;49.760;9.664;2023-04-01T08:18:16;12.20;76.20
2539;DHT22;1280;49.760;9.664;2023-04-01T08:20:51;12.20;76.30
2539;DHT22;1280;49.760;9.664;2023-04-01T08:23:24;12.20;76.20
2539;DHT22;1280;49.760;9.664;2023-04-01T08:25:58;12.20;76.30
2539;DHT22;1280;49.760;9.664;2023-04-01T08:28:34;12.20;76.40
2539;DHT22;1280;49.760;9.664;2023-04-01T08:31:10;12.20;76.50
2539;DHT22;1280;49.760;9.664;2023-04-01T08:33:46;12.30;76.60
2539;DHT22;1280;49.760;9.664;2023-04-01T08:36:17;12.30;76.60
2539;DHT22;1280;49.760;9.664;2023-04-01T08:38:57;12.30;76.50
2539;DHT22;1280;49.760;9.664;2023-04-01T08:41:41;12.30;76.50
2539;DHT22;1280;49.760;9.664;2023-04-01T08:45:07;12.30;76.60
2539;DHT22;1280;49.760;9.664;2023-04-01T08:48:23;12.20;76.70
2539;DHT22;1280;49.760;9.664;2023-04-01T08:54:16;12.20;76.90
2539;DHT22;1280;49.760;9.664;2023-04-01T08:56:55;12.10;77.30
2539;DHT22;1280;49.760;9.664;2023-04-01T08:59:47;12.20;77.50
2539;DHT22;1280;49.760;9.664;2023-04-01T09:03:24;12.20;77.50
2539;DHT22;1280;49.760;9.664;2023-04-01T09:06:35;12.30;77.70
2539;DHT22;1280;49.760;9.664;2023-04-01T09:12:44;12.30;77.70
2539;DHT22;1280;49.760;9.664;2023-04-01T09:18:58;12.30;77.90
2539;DHT22;1280;49.760;9.664;2023-04-01T09:22:41;12.30;78.00
2539;DHT22;1280;49.760;9.664;2023-04-01T09:25:41;12.30;78.00
2539;DHT22;1280;49.760;9.664;2023-04-01T09:28:28;12.30;78.10
2539;DHT22;1280;49.760;9.664;2023-04-01T09:31:28;12.30;78.20
2539;DHT22;1280;49.760;9.664;2023-04-01T09:34:52;12.30;78.20
2539;DHT22;1280;49.760;9.664;2023-04-01T09:38:11;12.30;78.10
2539;DHT22;1280;49.760;9.664;2023-04-01T09:40:56;12.30;78.20
2539;DHT22;1280;49.760;9.664;2023-04-01T09:44:00;12.30;78.30
2539;DHT22;1280;49.760;9.664;2023-04-01T09:47:04;12.30;78.40
2539;DHT22;1280;49.760;9.664;2023-04-01T09:50:17;12.30;78.50
2539;DHT22;1280;49.760;9.664;2023-04-01T09:53:00;12.30;78.60
2539;DHT22;1280;49.760;9.664;2023-04-01T09:56:00;12.30;78.70
2539;DHT22;1280;49.760;9.664;2023-04-01T09:59:06;12.40;78.70
2539;DHT22;1280;49.760;9.664;2023-04-01T10:09:12;12.50;79.20
2539;DHT22;1280;49.760;9.664;2023-04-01T10:12:17;12.70;79.50
2539;DHT22;1280;49.760;9.664;2023-04-01T10:25:34;13.30;79.10
2539;DHT22;1280;49.760;9.664;2023-04-01T10:28:57;13.40;79.00
2539;DHT22;1280;49.760;9.664;2023-04-01T10:32:15;13.30;78.80
2539;DHT22;1280;49.760;9.664;2023-04-01T10:42:06;13.40;78.90
2539;DHT22;1280;49.760;9.664;2023-04-01T10:45:35;13.40;79.10
2539;DHT22;1280;49.760;9.664;2023-04-01T10:48:36;13.50;78.80
2539;DHT22;1280;49.760;9.664;2023-04-01T10:55:04;13.50;78.80
2539;DHT22;1280;49.760;9.664;2023-04-01T11:18:52;13.60;78.70
2539;DHT22;1280;49.760;9.664;2023-04-01T11:22:10;13.60;78.60
2539;DHT22;1280;49.760;9.664;2023-04-01T11:28:38;13.60;78.90
2539;DHT22;1280;49.760;9.664;2023-04-01T11:31:33;13.60;79.00
2539;DHT22;1280;49.760;9.664;2023-04-01T11:34:24;13.70;79.00
2539;DHT22;1280;49.760;9.664;2023-04-01T11:37:11;13.70;78.90
2539;DHT22;1280;49.760;9.664;2023-04-01T11:40:09;13.70;79.00
2539;DHT22;1280;49.760;9.664;2023-04-01T11:43:14;13.70;79.00
2539;DHT22;1280;49.760;9.664;2023-04-01T11:46:25;13.70;79.00
2539;DHT22;1280;49.760;9.664;2023-04-01T11:49:07;13.80;79.00
2539;DHT22;1280;49.760;9.664;2023-04-01T11:52:08;13.80;79.00
2539;DHT22;1280;49.760;9.664;2023-04-01T11:55:19;13.90;79.00
2539;DHT22;1280;49.760;9.664;2023-04-01T11:58:17;13.90;78.80
2539;DHT22;1280;49.760;9.664;2023-04-01T12:01:10;13.90;78.80
2539;DHT22;1280;49.760;9.664;2023-04-01T12:07:27;13.90;79.10
2539;DHT22;1280;49.760;9.664;2023-04-01T12:10:18;14.00;79.20
2539;DHT22;1280;49.760;9.664;2023-04-01T12:13:02;14.00;79.30
2539;DHT22;1280;49.760;9.664;2023-04-01T12:15:53;14.10;79.30
2539;DHT22;1280;49.760;9.664;2023-04-01T12:18:38;14.10;79.30
2539;DHT22;1280;49.760;9.664;2023-04-01T12:21:24;14.20;79.20
2539;DHT22;1280;49.760;9.664;2023-04-01T12:30:59;14.20;79.10
2539;DHT22;1280;49.760;9.664;2023-04-01T12:33:52;14.20;79.10
2539;DHT22;1280;49.760;9.664;2023-04-01T12:36:50;14.20;79.20
2539;DHT22;1280;49.760;9.664;2023-04-01T12:39:52;14.20;79.20
2539;DHT22;1280;49.760;9.664;2023-04-01T12:43:01;14.30;79.20
2539;DHT22;1280;49.760;9.664;2023-04-01T12:45:47;14.30;79.10
2539;DHT22;1280;49.760;9.664;2023-04-01T12:52:10;14.20;78.80
2539;DHT22;1280;49.760;9.664;2023-04-01T12:55:09;14.20;79.00
2539;DHT22;1280;49.760;9.664;2023-04-01T13:01:40;14.10;78.90
2539;DHT22;1280;49.760;9.664;2023-04-01T13:04:43;14.00;79.10
2539;DHT22;1280;49.760;9.664;2023-04-01T13:08:07;14.00;79.30
2539;DHT22;1280;49.760;9.664;2023-04-01T13:11:20;14.00;79.30
2539;DHT22;1280;49.760;9.664;2023-04-01T13:17:19;14.00;79.40
2539;DHT22;1280;49.760;9.664;2023-04-01T13:20:03;14.00;79.50
2539;DHT22;1280;49.760;9.664;2023-04-01T13:22:51;14.00;79.50
2539;DHT22;1280;49.760;9.664;2023-04-01T13:25:30;14.00;79.50
2539;DHT22;1280;49.760;9.664;2023-04-01T13:28:16;14.00;79.50
2539;DHT22;1280;49.760;9.664;2023-04-01T13:30:57;14.10;79.50
2539;DHT22;1280;49.760;9.664;2023-04-01T13:33:39;14.00;79.40
2539;DHT22;1280;49.760;9.664;2023-04-01T13:36:34;14.00;79.50
2539;DHT22;1280;49.760;9.664;2023-04-01T13:39:35;14.00;79.50
2539;DHT22;1280;49.760;9.664;2023-04-01T13:42:16;14.00;79.40
2539;DHT22;1280;49.760;9.664;2023-04-01T13:45:08;14.00;79.50
2539;DHT22;1280;49.760;9.664;2023-04-01T13:47:59;13.90;79.50
2539;DHT22;1280;49.760;9.664;2023-04-01T13:50:46;13.90;79.60
2539;DHT22;1280;49.760;9.664;2023-04-01T13:56:55;13.90;79.60
2539;DHT22;1280;49.760;9.664;2023-04-01T13:59:45;13.90;79.50
2539;DHT22;1280;49.760;9.664;2023-04-01T14:03:05;13.90;79.50
2539;DHT22;1280;49.760;9.664;2023-04-01T14:05:54;13.90;79.50
2539;DHT22;1280;49.760;9.664;2023-04-01T14:08:48;13.80;79.70
2539;DHT22;1280;49.760;9.664;2023-04-01T14:11:32;13.90;79.70
2539;DHT22;1280;49.760;9.664;2023-04-01T14:14:26;13.90;79.70
2539;DHT22;1280;49.760;9.664;2023-04-01T14:17:20;13.90;79.70
2539;DHT22;1280;49.760;9.664;2023-04-01T14:20:20;13.90;79.70
2539;DHT22;1280;49.760;9.664;2023-04-01T14:23:07;13.90;79.70
2539;DHT22;1280;49.760;9.664;2023-04-01T14:29:15;13.90;79.80
2539;DHT22;1280;49.760;9.664;2023-04-01T14:32:05;13.90;79.80
2539;DHT22;1280;49.760;9.664;2023-04-01T14:35:03;13.90;79.80
2539;DHT22;1280;49.760;9.664;2023-04-01T14:38:21;13.90;79.90
2539;DHT22;1280;49.760;9.664;2023-04-01T14:41:10;13.90;79.90
2539;DHT22;1280;49.760;9.664;2023-04-01T14:47:22;13.90;79.70
2539;DHT22;1280;49.760;9.664;2023-04-01T14:50:08;13.80;79.70
2539;DHT22;1280;49.760;9.664;2023-04-01T14:52:55;13.80;79.80
2539;DHT22;1280;49.760;9.664;2023-04-01T14:55:43;13.80;79.80
2539;DHT22;1280;49.760;9.664;2023-04-01T14:58:20;13.80;79.90
2539;DHT22;1280;49.760;9.664;2023-04-01T15:01:08;13.80;79.90
2539;DHT22;1280;49.760;9.664;2023-04-01T15:03:51;13.80;79.90
2539;DHT22;1280;49.760;9.664;2023-04-01T15:06:54;13.70;80.00
2539;DHT22;1280;49.760;9.664;2023-04-01T15:09:35;13.70;80.20
2539;DHT22;1280;49.760;9.664;2023-04-01T15:12:30;13.80;80.10
2539;DHT22;1280;49.760;9.664;2023-04-01T15:15:29;13.70;80.20
2539;DHT22;1280;49.760;9.664;2023-04-01T15:18:13;13.70;80.00
2539;DHT22;1280;49.760;9.664;2023-04-01T15:24:00;13.70;80.10
2539;DHT22;1280;49.760;9.664;2023-04-01T15:26:50;13.60;80.20
2539;DHT22;1280;49.760;9.664;2023-04-01T15:29:54;13.60;80.30
2539;DHT22;1280;49.760;9.664;2023-04-01T15:32:43;13.60;80.20
2539;DHT22;1280;49.760;9.664;2023-04-01T15:35:36;13.60;80.20
2539;DHT22;1280;49.760;9.664;2023-04-01T15:38:25;13.60;80.20
2539;DHT22;1280;49.760;9.664;2023-04-01T15:41:09;13.60;80.10
2539;DHT22;1280;49.760;9.664;2023-04-01T15:43:45;13.50;80.10
2539;DHT22;1280;49.760;9.664;2023-04-01T15:46:39;13.50;80.10
2539;DHT22;1280;49.760;9.664;2023-04-01T15:49:37;13.40;80.20
2539;DHT22;1280;49.760;9.664;2023-04-01T15:52:16;13.30;80.40
2539;DHT22;1280;49.760;9.664;2023-04-01T15:55:15;13.30;80.50
2539;DHT22;1280;49.760;9.664;2023-04-01T15:58:06;13.40;80.70
2539;DHT22;1280;49.760;9.664;2023-04-01T16:00:53;13.40;80.70
2539;DHT22;1280;49.760;9.664;2023-04-01T16:03:43;13.40;80.80
2539;DHT22;1280;49.760;9.664;2023-04-01T16:06:50;13.40;80.90
2539;DHT22;1280;49.760;9.664;2023-04-01T16:12:46;13.50;81.00
2539;DHT22;1280;49.760;9.664;2023-04-01T16:15:27;13.50;81.00
2539;DHT22;1280;49.760;9.664;2023-04-01T16:18:17;13.50;81.00
2539;DHT22;1280;49.760;9.664;2023-04-01T16:21:02;13.60;81.00
2539;DHT22;1280;49.760;9.664;2023-04-01T16:23:42;13.60;80.90
2539;DHT22;1280;49.760;9.664;2023-04-01T16:26:28;13.60;81.00
2539;DHT22;1280;49.760;9.664;2023-04-01T16:29:17;13.60;81.00
2539;DHT22;1280;49.760;9.664;2023-04-01T16:32:12;13.60;80.80
2539;DHT22;1280;49.760;9.664;2023-04-01T16:35:10;13.60;80.80
2539;DHT22;1280;49.760;9.664;2023-04-01T16:38:03;13.60;80.80
2539;DHT22;1280;49.760;9.664;2023-04-01T16:40:43;13.60;80.90
2539;DHT22;1280;49.760;9.664;2023-04-01T16:43:21;13.60;80.90
2539;DHT22;1280;49.760;9.664;2023-04-01T16:46:16;13.60;80.90
2539;DHT22;1280;49.760;9.664;2023-04-01T16:49:14;13.60;80.90
2539;DHT22;1280;49.760;9.664;2023-04-01T16:51:48;13.60;80.90
2539;DHT22;1280;49.760;9.664;2023-04-01T16:54:35;13.60;80.90
2539;DHT22;1280;49.760;9.664;2023-04-01T16:57:23;13.60;80.80
2539;DHT22;1280;49.760;9.664;2023-04-01T16:59:58;13.60;80.80
2539;DHT22;1280;49.760;9.664;2023-04-01T17:02:43;13.50;80.80
2539;DHT22;1280;49.760;9.664;2023-04-01T17:05:21;13.50;80.80
2539;DHT22;1280;49.760;9.664;2023-04-01T17:08:10;13.50;80.70
2539;DHT22;1280;49.760;9.664;2023-04-01T17:10:56;13.50;80.70
2539;DHT22;1280;49.760;9.664;2023-04-01T17:13:46;13.50;80.70
2539;DHT22;1280;49.760;9.664;2023-04-01T17:16:59;13.50;80.40
2539;DHT22;1280;49.760;9.664;2023-04-01T17:22:44;13.40;80.30
2539;DHT22;1280;49.760;9.664;2023-04-01T17:25:29;13.30;80.50
2539;DHT22;1280;49.760;9.664;2023-04-01T17:28:19;13.30;80.40
2539;DHT22;1280;49.760;9.664;2023-04-01T17:31:07;13.30;80.70
2539;DHT22;1280;49.760;9.664;2023-04-01T17:34:22;13.20;80.70
2539;DHT22;1280;49.760;9.664;2023-04-01T17:37:22;13.20;80.60
2539;DHT22;1280;49.760;9.664;2023-04-01T17:40:15;13.20;80.60
2539;DHT22;1280;49.760;9.664;2023-04-01T17:43:03;13.20;80.70
2539;DHT22;1280;49.760;9.664;2023-04-01T17:45:54;13.20;80.30
2539;DHT22;1280;49.760;9.664;2023-04-01T17:48:40;13.20;80.50
2539;DHT22;1280;49.760;9.664;2023-04-01T17:51:25;13.20;80.30
2539;DHT22;1280;49.760;9.664;2023-04-01T17:54:34;13.10;80.30
2539;DHT22;1280;49.760;9.664;2023-04-01T17:57:22;13.10;80.30
2539;DHT22;1280;49.760;9.664;2023-04-01T18:00:15;13.00;80.40
2539;DHT22;1280;49.760;9.664;2023-04-01T18:02:59;13.00;80.40
2539;DHT22;1280;49.760;9.664;2023-04-01T18:05:58;13.00;80.40
2539;DHT22;1280;49.760;9.664;2023-04-01T18:08:47;13.00;80.40
2539;DHT22;1280;49.760;9.664;2023-04-01T18:11:33;13.00;80.40
2539;DHT22;1280;49.760;9.664;2023-04-01T18:17:59;13.00;80.30
2539;DHT22;1280;49.760;9.664;2023-04-01T18:20:42;13.00;80.30
2539;DHT22;1280;49.760;9.664;2023-04-01T18:23:28;13.00;80.40
2539;DHT22;1280;49.760;9.664;2023-04-01T18:26:12;13.00;80.30
2539;DHT22;1280;49.760;9.664;2023-04-01T18:28:54;13.00;80.30
2539;DHT22;1280;49.760;9.664;2023-04-01T18:31:39;13.00;80.30
2539;DHT22;1280;49.760;9.664;2023-04-01T18:34:43;13.00;80.30
2539;DHT22;1280;49.760;9.664;2023-04-01T18:37:46;13.00;80.20
2539;DHT22;1280;49.760;9.664;2023-04-01T18:40:51;12.90;80.20
2539;DHT22;1280;49.760;9.664;2023-04-01T18:43:39;12.90;80.20
2539;DHT22;1280;49.760;9.664;2023-04-01T18:46:25;12.90;80.20
2539;DHT22;1280;49.760;9.664;2023-04-01T18:49:23;12.90;80.20
2539;DHT22;1280;49.760;9.664;2023-04-01T18:52:13;12.90;80.20
2539;DHT22;1280;49.760;9.664;2023-04-01T18:55:34;12.90;80.20
2539;DHT22;1280;49.760;9.664;2023-04-01T18:58:28;12.90;80.10
2539;DHT22;1280;49.760;9.664;2023-04-01T19:01:38;12.90;80.10
2539;DHT22;1280;49.760;9.664;2023-04-01T19:04:30;12.90;80.10
2539;DHT22;1280;49.760;9.664;2023-04-01T19:07:41;12.90;80.10
2539;DHT22;1280;49.760;9.664;2023-04-01T19:11:00;12.90;80.10
2539;DHT22;1280;49.760;9.664;2023-04-01T19:14:14;12.90;80.10
2539;DHT22;1280;49.760;9.664;2023-04-01T19:17:07;12.90;80.00
2539;DHT22;1280;49.760;9.664;2023-04-01T19:20:07;12.90;80.00
2539;DHT22;1280;49.760;9.664;2023-04-01T19:26:09;12.80;80.00
2539;DHT22;1280;49.760;9.664;2023-04-01T19:29:05;12.80;80.00
2539;DHT22;1280;49.760;9.664;2023-04-01T19:32:05;12.90;79.90
2539;DHT22;1280;49.760;9.664;2023-04-01T19:34:57;12.80;79.80
2539;DHT22;1280;49.760;9.664;2023-04-01T19:37:50;12.90;79.80
2539;DHT22;1280;49.760;9.664;2023-04-01T19:40:59;12.80;79.70
2539;DHT22;1280;49.760;9.664;2023-04-01T19:43:51;12.80;79.60